Capitol Logistics 413


KTUL
Tulsa International Airport
Tulsa, Oklahoma, US
KMIA
Miami International Airport
Miami, Florida, US

Route Details

Aircraft Information
Primary: Boeing 757-200SF
Backup: Boeing 737-800BCF
Route Data
Distance: 1016nm
Sched. Duration: 2h 14m
Avg. Duration: 2h 70m (+56m)
Times Flown: 5
Recm'd Route: MAYJI FSM LIT SQS MEI ACORI BULZI NICKI Q81 ENDEW JUULI SSCOT5
Planned Altitude: 37,000ft
Origin Wx: KTUL 291253Z 35015KT 7SM -RA BKN010 OVC015 06/04 A2989 RMK AO2 PK WND 35026/1222 SLP122 P0007 T00560044
Dest. Wx: KMIA 291253Z 13009KT 10SM SCT020 SCT035 SCT250 28/24 A2998 RMK AO2 SLP151 T02780244
Notes:

Financial History
Total Freight: 262,064lbs
Average Load: 52,413lbs/flt
Fuel Used: 91,809lbs
Avg. Fuel Used: 18,362lbs/flt
Fuel Expense: $43,150
Avg. Fuel Expense: $8,630
Avg. Fuel Cost: $0.47/lbs
Total Gross Income: $354,835
Pilot Pay: $915
Total Expenses: $38,582
Total Revenue: $270,076
Average Revenue: $70,967.07